sensor_id;sensor_type;location;lat;lon;timestamp;temperature;humidity
5924;DHT22;2987;50.884;14.818;2022-07-29T00:02:17;13.30;99.90
5924;DHT22;2987;50.884;14.818;2022-07-29T00:04:47;13.20;99.90
5924;DHT22;2987;50.884;14.818;2022-07-29T00:07:16;13.20;99.90
5924;DHT22;2987;50.884;14.818;2022-07-29T00:09:46;13.20;99.90
5924;DHT22;2987;50.884;14.818;2022-07-29T00:12:15;13.20;99.90
5924;DHT22;2987;50.884;14.818;2022-07-29T00:14:45;13.20;99.90
5924;DHT22;2987;50.884;14.818;2022-07-29T00:17:14;13.20;99.90
5924;DHT22;2987;50.884;14.818;2022-07-29T00:19:43;13.10;99.90
5924;DHT22;2987;50.884;14.818;2022-07-29T00:22:13;13.10;99.90
5924;DHT22;2987;50.884;14.818;2022-07-29T00:24:42;13.10;99.90
5924;DHT22;2987;50.884;14.818;2022-07-29T00:27:12;13.00;99.90
5924;DHT22;2987;50.884;14.818;2022-07-29T00:29:47;13.00;99.90
5924;DHT22;2987;50.884;14.818;2022-07-29T00:32:26;12.80;99.90
5924;DHT22;2987;50.884;14.818;2022-07-29T00:34:56;12.80;99.90
5924;DHT22;2987;50.884;14.818;2022-07-29T00:37:45;12.60;99.90
5924;DHT22;2987;50.884;14.818;2022-07-29T00:40:14;13.00;99.90
5924;DHT22;2987;50.884;14.818;2022-07-29T00:42:47;12.60;99.90
5924;DHT22;2987;50.884;14.818;2022-07-29T00:45:18;12.60;99.90
5924;DHT22;2987;50.884;14.818;2022-07-29T00:47:47;12.50;99.90
5924;DHT22;2987;50.884;14.818;2022-07-29T00:50:17;12.50;99.90
5924;DHT22;2987;50.884;14.818;2022-07-29T00:52:47;12.50;99.90
5924;DHT22;2987;50.884;14.818;2022-07-29T00:55:16;12.50;99.90
5924;DHT22;2987;50.884;14.818;2022-07-29T00:57:46;12.50;99.90
5924;DHT22;2987;50.884;14.818;2022-07-29T01:00:19;12.50;99.90
5924;DHT22;2987;50.884;14.818;2022-07-29T01:02:48;12.20;99.90
5924;DHT22;2987;50.884;14.818;2022-07-29T01:05:20;12.40;99.90
5924;DHT22;2987;50.884;14.818;2022-07-29T01:07:53;12.40;99.90
5924;DHT22;2987;50.884;14.818;2022-07-29T01:10:23;12.40;99.90
5924;DHT22;2987;50.884;14.818;2022-07-29T01:12:57;12.40;99.90
5924;DHT22;2987;50.884;14.818;2022-07-29T01:15:26;12.40;99.90
5924;DHT22;2987;50.884;14.818;2022-07-29T01:18:11;12.20;99.90
5924;DHT22;2987;50.884;14.818;2022-07-29T01:29:41;12.20;99.90
5924;DHT22;2987;50.884;14.818;2022-07-29T01:32:15;12.10;99.90
5924;DHT22;2987;50.884;14.818;2022-07-29T01:34:58;12.00;99.90
5924;DHT22;2987;50.884;14.818;2022-07-29T01:37:57;12.10;99.90
5924;DHT22;2987;50.884;14.818;2022-07-29T01:40:52;11.90;99.90
5924;DHT22;2987;50.884;14.818;2022-07-29T01:46:11;11.70;99.90
5924;DHT22;2987;50.884;14.818;2022-07-29T01:48:47;11.80;99.90
5924;DHT22;2987;50.884;14.818;2022-07-29T01:51:19;11.80;99.90
5924;DHT22;2987;50.884;14.818;2022-07-29T01:56:36;11.70;99.90
5924;DHT22;2987;50.884;14.818;2022-07-29T01:59:08;11.70;99.90
5924;DHT22;2987;50.884;14.818;2022-07-29T02:01:40;11.70;99.90
5924;DHT22;2987;50.884;14.818;2022-07-29T02:04:12;11.70;99.90
5924;DHT22;2987;50.884;14.818;2022-07-29T02:06:51;11.70;99.90
5924;DHT22;2987;50.884;14.818;2022-07-29T02:09:25;11.70;99.90
5924;DHT22;2987;50.884;14.818;2022-07-29T02:11:56;11.80;99.90
5924;DHT22;2987;50.884;14.818;2022-07-29T02:14:30;11.70;99.90
5924;DHT22;2987;50.884;14.818;2022-07-29T02:17:05;11.80;99.90
5924;DHT22;2987;50.884;14.818;2022-07-29T02:19:38;11.80;99.90
5924;DHT22;2987;50.884;14.818;2022-07-29T02:22:09;11.80;99.90
5924;DHT22;2987;50.884;14.818;2022-07-29T02:24:41;11.80;99.90
5924;DHT22;2987;50.884;14.818;2022-07-29T02:27:13;11.80;99.90
5924;DHT22;2987;50.884;14.818;2022-07-29T02:29:43;11.80;99.90
5924;DHT22;2987;50.884;14.818;2022-07-29T02:32:17;11.70;99.90
5924;DHT22;2987;50.884;14.818;2022-07-29T02:34:50;11.70;99.90
5924;DHT22;2987;50.884;14.818;2022-07-29T02:37:22;11.60;99.90
5924;DHT22;2987;50.884;14.818;2022-07-29T02:39:57;11.60;99.90
5924;DHT22;2987;50.884;14.818;2022-07-29T02:42:29;11.60;99.90
5924;DHT22;2987;50.884;14.818;2022-07-29T02:44:59;11.70;99.90
5924;DHT22;2987;50.884;14.818;2022-07-29T02:47:36;11.80;99.90
5924;DHT22;2987;50.884;14.818;2022-07-29T02:50:11;11.60;99.90
5924;DHT22;2987;50.884;14.818;2022-07-29T02:55:41;11.70;99.90
5924;DHT22;2987;50.884;14.818;2022-07-29T02:58:28;11.60;99.90
5924;DHT22;2987;50.884;14.818;2022-07-29T03:03:35;12.00;99.90
5924;DHT22;2987;50.884;14.818;2022-07-29T03:06:08;11.70;99.90
5924;DHT22;2987;50.884;14.818;2022-07-29T03:08:37;11.70;99.90
5924;DHT22;2987;50.884;14.818;2022-07-29T03:11:08;11.70;99.90
5924;DHT22;2987;50.884;14.818;2022-07-29T03:13:38;11.70;99.90
5924;DHT22;2987;50.884;14.818;2022-07-29T03:16:08;11.70;99.90
5924;DHT22;2987;50.884;14.818;2022-07-29T03:18:38;11.70;99.90
5924;DHT22;2987;50.884;14.818;2022-07-29T03:21:08;11.70;99.90
5924;DHT22;2987;50.884;14.818;2022-07-29T03:23:44;11.70;99.90
5924;DHT22;2987;50.884;14.818;2022-07-29T03:26:14;11.70;99.90
5924;DHT22;2987;50.884;14.818;2022-07-29T03:28:44;11.70;99.90
5924;DHT22;2987;50.884;14.818;2022-07-29T03:31:13;11.70;99.90
5924;DHT22;2987;50.884;14.818;2022-07-29T03:33:42;11.90;99.90
5924;DHT22;2987;50.884;14.818;2022-07-29T03:36:12;11.70;99.90
5924;DHT22;2987;50.884;14.818;2022-07-29T03:38:43;11.60;99.90
5924;DHT22;2987;50.884;14.818;2022-07-29T03:41:15;11.60;99.90
5924;DHT22;2987;50.884;14.818;2022-07-29T03:43:46;11.60;99.90
5924;DHT22;2987;50.884;14.818;2022-07-29T03:46:17;11.80;99.90
5924;DHT22;2987;50.884;14.818;2022-07-29T03:48:50;11.70;99.90
5924;DHT22;2987;50.884;14.818;2022-07-29T03:51:21;11.80;99.90
5924;DHT22;2987;50.884;14.818;2022-07-29T03:53:50;11.70;99.90
5924;DHT22;2987;50.884;14.818;2022-07-29T03:56:21;11.70;99.90
5924;DHT22;2987;50.884;14.818;2022-07-29T03:58:52;11.70;99.90
5924;DHT22;2987;50.884;14.818;2022-07-29T04:01:21;11.70;99.90
5924;DHT22;2987;50.884;14.818;2022-07-29T04:03:51;11.60;99.90
5924;DHT22;2987;50.884;14.818;2022-07-29T04:06:20;11.80;99.90
5924;DHT22;2987;50.884;14.818;2022-07-29T04:08:49;11.80;99.90
5924;DHT22;2987;50.884;14.818;2022-07-29T04:11:20;11.90;99.90
5924;DHT22;2987;50.884;14.818;2022-07-29T04:13:50;11.90;99.90
5924;DHT22;2987;50.884;14.818;2022-07-29T04:16:20;12.00;99.90
5924;DHT22;2987;50.884;14.818;2022-07-29T04:18:51;12.00;99.90
5924;DHT22;2987;50.884;14.818;2022-07-29T04:21:22;12.00;99.90
5924;DHT22;2987;50.884;14.818;2022-07-29T04:23:51;12.10;99.90
5924;DHT22;2987;50.884;14.818;2022-07-29T04:26:20;12.20;99.90
5924;DHT22;2987;50.884;14.818;2022-07-29T04:28:51;12.20;99.90
5924;DHT22;2987;50.884;14.818;2022-07-29T04:31:21;12.30;99.90
5924;DHT22;2987;50.884;14.818;2022-07-29T04:33:51;12.40;99.90
5924;DHT22;2987;50.884;14.818;2022-07-29T04:36:21;12.50;99.90
5924;DHT22;2987;50.884;14.818;2022-07-29T04:38:51;12.50;99.90
5924;DHT22;2987;50.884;14.818;2022-07-29T04:41:21;12.60;99.90
5924;DHT22;2987;50.884;14.818;2022-07-29T04:43:50;12.70;99.90
5924;DHT22;2987;50.884;14.818;2022-07-29T04:46:20;12.80;99.90
5924;DHT22;2987;50.884;14.818;2022-07-29T04:48:51;13.20;99.90
5924;DHT22;2987;50.884;14.818;2022-07-29T04:51:22;13.10;99.90
5924;DHT22;2987;50.884;14.818;2022-07-29T04:53:52;13.20;99.90
5924;DHT22;2987;50.884;14.818;2022-07-29T04:56:22;13.30;99.90
5924;DHT22;2987;50.884;14.818;2022-07-29T04:58:51;13.40;99.90
5924;DHT22;2987;50.884;14.818;2022-07-29T05:01:20;13.50;99.90
5924;DHT22;2987;50.884;14.818;2022-07-29T05:03:49;13.60;99.90
5924;DHT22;2987;50.884;14.818;2022-07-29T05:06:19;13.60;99.90
5924;DHT22;2987;50.884;14.818;2022-07-29T05:08:49;13.70;99.90
5924;DHT22;2987;50.884;14.818;2022-07-29T05:11:18;13.80;99.90
5924;DHT22;2987;50.884;14.818;2022-07-29T05:13:48;13.90;99.90
5924;DHT22;2987;50.884;14.818;2022-07-29T05:16:18;14.00;99.90
5924;DHT22;2987;50.884;14.818;2022-07-29T05:18:46;14.00;99.90
5924;DHT22;2987;50.884;14.818;2022-07-29T05:21:17;14.10;99.90
5924;DHT22;2987;50.884;14.818;2022-07-29T05:23:47;14.20;99.90
5924;DHT22;2987;50.884;14.818;2022-07-29T05:26:17;14.20;99.90
5924;DHT22;2987;50.884;14.818;2022-07-29T05:28:47;14.30;99.90
5924;DHT22;2987;50.884;14.818;2022-07-29T05:31:16;14.30;99.90
5924;DHT22;2987;50.884;14.818;2022-07-29T05:33:46;14.40;99.90
5924;DHT22;2987;50.884;14.818;2022-07-29T05:36:15;14.50;99.90
5924;DHT22;2987;50.884;14.818;2022-07-29T05:38:44;14.60;99.90
5924;DHT22;2987;50.884;14.818;2022-07-29T05:41:12;14.70;99.90
5924;DHT22;2987;50.884;14.818;2022-07-29T05:43:42;14.80;99.90
5924;DHT22;2987;50.884;14.818;2022-07-29T05:46:12;15.00;99.90
5924;DHT22;2987;50.884;14.818;2022-07-29T05:48:42;15.10;99.90
5924;DHT22;2987;50.884;14.818;2022-07-29T05:51:12;15.20;99.90
5924;DHT22;2987;50.884;14.818;2022-07-29T05:53:42;15.30;99.90
5924;DHT22;2987;50.884;14.818;2022-07-29T05:56:15;15.40;99.90
5924;DHT22;2987;50.884;14.818;2022-07-29T05:58:44;15.40;99.90
5924;DHT22;2987;50.884;14.818;2022-07-29T06:01:14;15.50;99.90
5924;DHT22;2987;50.884;14.818;2022-07-29T06:03:43;15.50;99.90
5924;DHT22;2987;50.884;14.818;2022-07-29T06:06:13;15.60;99.90
5924;DHT22;2987;50.884;14.818;2022-07-29T06:08:43;15.70;99.90
5924;DHT22;2987;50.884;14.818;2022-07-29T06:11:13;15.80;99.90
5924;DHT22;2987;50.884;14.818;2022-07-29T06:13:42;15.90;99.90
5924;DHT22;2987;50.884;14.818;2022-07-29T06:16:11;16.00;99.90
5924;DHT22;2987;50.884;14.818;2022-07-29T06:18:41;16.10;99.90
5924;DHT22;2987;50.884;14.818;2022-07-29T06:21:10;16.10;99.90
5924;DHT22;2987;50.884;14.818;2022-07-29T06:23:40;16.10;99.90
5924;DHT22;2987;50.884;14.818;2022-07-29T06:26:10;16.10;99.90
5924;DHT22;2987;50.884;14.818;2022-07-29T06:28:43;16.20;99.90
5924;DHT22;2987;50.884;14.818;2022-07-29T06:31:12;16.30;99.90
5924;DHT22;2987;50.884;14.818;2022-07-29T06:33:41;16.50;99.90
5924;DHT22;2987;50.884;14.818;2022-07-29T06:36:09;16.90;99.90
5924;DHT22;2987;50.884;14.818;2022-07-29T06:38:38;17.40;99.90
5924;DHT22;2987;50.884;14.818;2022-07-29T06:41:08;18.00;99.90
5924;DHT22;2987;50.884;14.818;2022-07-29T06:43:42;18.40;99.90
5924;DHT22;2987;50.884;14.818;2022-07-29T06:46:14;18.80;99.90
5924;DHT22;2987;50.884;14.818;2022-07-29T06:48:44;19.10;99.90
5924;DHT22;2987;50.884;14.818;2022-07-29T06:51:12;19.20;99.90
5924;DHT22;2987;50.884;14.818;2022-07-29T06:53:43;19.30;99.90
5924;DHT22;2987;50.884;14.818;2022-07-29T06:56:13;19.30;99.90
5924;DHT22;2987;50.884;14.818;2022-07-29T06:58:41;19.50;99.90
5924;DHT22;2987;50.884;14.818;2022-07-29T07:01:11;19.90;99.90
5924;DHT22;2987;50.884;14.818;2022-07-29T07:03:41;20.20;99.90
5924;DHT22;2987;50.884;14.818;2022-07-29T07:06:11;20.80;99.90
5924;DHT22;2987;50.884;14.818;2022-07-29T07:08:41;21.40;99.90
5924;DHT22;2987;50.884;14.818;2022-07-29T07:11:10;21.80;99.90
5924;DHT22;2987;50.884;14.818;2022-07-29T07:13:40;21.90;99.90
5924;DHT22;2987;50.884;14.818;2022-07-29T07:16:09;22.10;99.90
5924;DHT22;2987;50.884;14.818;2022-07-29T07:18:38;22.60;99.90
5924;DHT22;2987;50.884;14.818;2022-07-29T07:21:23;23.20;99.90
5924;DHT22;2987;50.884;14.818;2022-07-29T07:23:52;23.20;99.90
5924;DHT22;2987;50.884;14.818;2022-07-29T07:26:24;23.60;99.90
5924;DHT22;2987;50.884;14.818;2022-07-29T07:29:18;23.90;99.90
5924;DHT22;2987;50.884;14.818;2022-07-29T07:31:48;24.10;99.90
5924;DHT22;2987;50.884;14.818;2022-07-29T07:34:17;24.10;99.90
5924;DHT22;2987;50.884;14.818;2022-07-29T07:36:47;23.60;99.90
5924;DHT22;2987;50.884;14.818;2022-07-29T07:39:17;23.70;99.90
5924;DHT22;2987;50.884;14.818;2022-07-29T07:41:55;23.80;99.90
5924;DHT22;2987;50.884;14.818;2022-07-29T07:44:25;24.20;99.90
5924;DHT22;2987;50.884;14.818;2022-07-29T07:46:54;24.40;99.90
5924;DHT22;2987;50.884;14.818;2022-07-29T07:49:23;24.40;98.30
5924;DHT22;2987;50.884;14.818;2022-07-29T07:51:53;24.40;99.40
5924;DHT22;2987;50.884;14.818;2022-07-29T07:54:23;24.40;99.90
5924;DHT22;2987;50.884;14.818;2022-07-29T07:56:54;24.80;98.60
5924;DHT22;2987;50.884;14.818;2022-07-29T07:59:23;24.80;98.30
5924;DHT22;2987;50.884;14.818;2022-07-29T08:01:52;25.00;99.40
5924;DHT22;2987;50.884;14.818;2022-07-29T08:04:22;25.20;99.30
5924;DHT22;2987;50.884;14.818;2022-07-29T08:06:54;25.50;98.80
5924;DHT22;2987;50.884;14.818;2022-07-29T08:09:25;25.20;97.20
5924;DHT22;2987;50.884;14.818;2022-07-29T08:11:57;25.70;99.90
5924;DHT22;2987;50.884;14.818;2022-07-29T08:14:35;25.80;98.40
5924;DHT22;2987;50.884;14.818;2022-07-29T08:17:05;26.20;97.50
5924;DHT22;2987;50.884;14.818;2022-07-29T08:19:36;26.20;99.10
5924;DHT22;2987;50.884;14.818;2022-07-29T08:22:13;26.20;97.10
5924;DHT22;2987;50.884;14.818;2022-07-29T08:24:47;26.10;98.50
5924;DHT22;2987;50.884;14.818;2022-07-29T08:27:16;25.90;97.20
5924;DHT22;2987;50.884;14.818;2022-07-29T08:29:46;25.60;99.10
5924;DHT22;2987;50.884;14.818;2022-07-29T08:32:15;25.50;97.50
5924;DHT22;2987;50.884;14.818;2022-07-29T08:34:44;25.30;99.90
5924;DHT22;2987;50.884;14.818;2022-07-29T08:37:14;25.40;97.80
5924;DHT22;2987;50.884;14.818;2022-07-29T08:39:44;25.60;99.20
5924;DHT22;2987;50.884;14.818;2022-07-29T08:42:14;26.00;97.40
5924;DHT22;2987;50.884;14.818;2022-07-29T08:44:45;26.20;97.00
5924;DHT22;2987;50.884;14.818;2022-07-29T08:47:15;26.30;96.80
5924;DHT22;2987;50.884;14.818;2022-07-29T08:49:45;26.20;97.70
5924;DHT22;2987;50.884;14.818;2022-07-29T08:52:18;26.20;98.20
5924;DHT22;2987;50.884;14.818;2022-07-29T08:54:50;26.00;98.80
5924;DHT22;2987;50.884;14.818;2022-07-29T08:57:22;25.90;96.70
5924;DHT22;2987;50.884;14.818;2022-07-29T08:59:54;26.00;97.10
5924;DHT22;2987;50.884;14.818;2022-07-29T09:02:24;26.00;97.50
5924;DHT22;2987;50.884;14.818;2022-07-29T09:05:00;26.10;97.40
5924;DHT22;2987;50.884;14.818;2022-07-29T09:07:32;26.10;96.80
5924;DHT22;2987;50.884;14.818;2022-07-29T09:10:01;26.20;96.80
5924;DHT22;2987;50.884;14.818;2022-07-29T09:12:32;26.10;97.80
5924;DHT22;2987;50.884;14.818;2022-07-29T09:15:05;26.20;95.80
5924;DHT22;2987;50.884;14.818;2022-07-29T09:17:51;26.20;96.20
5924;DHT22;2987;50.884;14.818;2022-07-29T09:20:22;26.30;95.70
5924;DHT22;2987;50.884;14.818;2022-07-29T09:22:52;26.40;96.30
5924;DHT22;2987;50.884;14.818;2022-07-29T09:25:38;26.30;96.10
5924;DHT22;2987;50.884;14.818;2022-07-29T09:28:10;26.20;96.20
5924;DHT22;2987;50.884;14.818;2022-07-29T09:30:58;26.20;95.80
5924;DHT22;2987;50.884;14.818;2022-07-29T09:33:38;26.10;97.20
5924;DHT22;2987;50.884;14.818;2022-07-29T09:36:10;25.90;96.80
5924;DHT22;2987;50.884;14.818;2022-07-29T09:38:40;25.80;96.90
5924;DHT22;2987;50.884;14.818;2022-07-29T09:41:10;26.00;99.10
5924;DHT22;2987;50.884;14.818;2022-07-29T09:44:08;26.20;97.50
5924;DHT22;2987;50.884;14.818;2022-07-29T09:46:38;26.20;97.60
5924;DHT22;2987;50.884;14.818;2022-07-29T09:49:12;26.50;96.80
5924;DHT22;2987;50.884;14.818;2022-07-29T09:51:43;26.90;98.60
5924;DHT22;2987;50.884;14.818;2022-07-29T09:54:29;27.20;96.70
5924;DHT22;2987;50.884;14.818;2022-07-29T09:57:08;27.60;94.80
5924;DHT22;2987;50.884;14.818;2022-07-29T09:59:57;27.80;96.00
5924;DHT22;2987;50.884;14.818;2022-07-29T10:02:38;28.00;94.70
5924;DHT22;2987;50.884;14.818;2022-07-29T10:05:29;27.90;92.90
5924;DHT22;2987;50.884;14.818;2022-07-29T10:07:59;27.80;93.10
5924;DHT22;2987;50.884;14.818;2022-07-29T10:10:34;27.80;91.40
5924;DHT22;2987;50.884;14.818;2022-07-29T10:13:09;28.00;92.20
5924;DHT22;2987;50.884;14.818;2022-07-29T10:15:41;28.00;93.90
5924;DHT22;2987;50.884;14.818;2022-07-29T10:18:14;28.10;94.50
5924;DHT22;2987;50.884;14.818;2022-07-29T10:20:47;27.90;94.90
5924;DHT22;2987;50.884;14.818;2022-07-29T10:23:18;27.80;92.30
5924;DHT22;2987;50.884;14.818;2022-07-29T10:25:48;27.60;91.40
5924;DHT22;2987;50.884;14.818;2022-07-29T10:28:18;27.30;92.50
5924;DHT22;2987;50.884;14.818;2022-07-29T10:30:50;27.40;93.50
5924;DHT22;2987;50.884;14.818;2022-07-29T10:47:00;26.90;94.10
5924;DHT22;2987;50.884;14.818;2022-07-29T10:49:29;27.10;94.10
5924;DHT22;2987;50.884;14.818;2022-07-29T10:59:43;27.30;94.70
5924;DHT22;2987;50.884;14.818;2022-07-29T11:07:36;27.20;96.50
5924;DHT22;2987;50.884;14.818;2022-07-29T11:15:16;27.10;95.80
5924;DHT22;2987;50.884;14.818;2022-07-29T11:23:28;26.90;94.70
5924;DHT22;2987;50.884;14.818;2022-07-29T11:31:41;27.00;96.30
5924;DHT22;2987;50.884;14.818;2022-07-29T11:34:33;27.10;94.60
5924;DHT22;2987;50.884;14.818;2022-07-29T11:37:28;27.10;94.30
5924;DHT22;2987;50.884;14.818;2022-07-29T11:42:44;26.90;95.20
5924;DHT22;2987;50.884;14.818;2022-07-29T11:45:17;26.90;94.70
5924;DHT22;2987;50.884;14.818;2022-07-29T11:47:50;26.80;94.30
5924;DHT22;2987;50.884;14.818;2022-07-29T11:50:33;26.80;93.90
5924;DHT22;2987;50.884;14.818;2022-07-29T11:53:14;27.00;96.30
5924;DHT22;2987;50.884;14.818;2022-07-29T11:55:43;27.30;95.20
5924;DHT22;2987;50.884;14.818;2022-07-29T11:58:13;27.40;95.90
5924;DHT22;2987;50.884;14.818;2022-07-29T12:00:47;27.50;96.00
5924;DHT22;2987;50.884;14.818;2022-07-29T12:03:28;27.80;93.30
5924;DHT22;2987;50.884;14.818;2022-07-29T12:05:58;27.90;92.60
5924;DHT22;2987;50.884;14.818;2022-07-29T12:08:28;27.60;91.00
5924;DHT22;2987;50.884;14.818;2022-07-29T12:11:00;27.40;92.60
5924;DHT22;2987;50.884;14.818;2022-07-29T12:13:42;27.30;94.00
5924;DHT22;2987;50.884;14.818;2022-07-29T12:16:14;27.40;92.50
5924;DHT22;2987;50.884;14.818;2022-07-29T12:19:03;27.40;95.10
5924;DHT22;2987;50.884;14.818;2022-07-29T12:21:52;27.50;95.10
5924;DHT22;2987;50.884;14.818;2022-07-29T12:24:24;27.60;93.50
5924;DHT22;2987;50.884;14.818;2022-07-29T12:26:56;27.70;92.90
5924;DHT22;2987;50.884;14.818;2022-07-29T12:29:27;28.00;92.60
5924;DHT22;2987;50.884;14.818;2022-07-29T12:31:58;28.30;94.10
5924;DHT22;2987;50.884;14.818;2022-07-29T12:34:30;28.50;91.10
5924;DHT22;2987;50.884;14.818;2022-07-29T12:37:01;28.40;92.00
5924;DHT22;2987;50.884;14.818;2022-07-29T12:39:31;28.30;92.00
5924;DHT22;2987;50.884;14.818;2022-07-29T12:42:00;28.20;93.70
5924;DHT22;2987;50.884;14.818;2022-07-29T12:44:45;28.30;93.40
5924;DHT22;2987;50.884;14.818;2022-07-29T12:47:18;28.30;93.10
5924;DHT22;2987;50.884;14.818;2022-07-29T12:49:49;28.30;93.50
5924;DHT22;2987;50.884;14.818;2022-07-29T12:55:13;28.20;93.10
5924;DHT22;2987;50.884;14.818;2022-07-29T12:58:05;28.30;93.90
5924;DHT22;2987;50.884;14.818;2022-07-29T13:00:35;28.40;92.70
5924;DHT22;2987;50.884;14.818;2022-07-29T13:03:05;28.70;92.20
5924;DHT22;2987;50.884;14.818;2022-07-29T13:05:47;28.90;89.80
5924;DHT22;2987;50.884;14.818;2022-07-29T13:08:16;28.90;90.20
5924;DHT22;2987;50.884;14.818;2022-07-29T13:10:50;29.00;89.70
5924;DHT22;2987;50.884;14.818;2022-07-29T13:13:20;28.90;92.80
5924;DHT22;2987;50.884;14.818;2022-07-29T13:16:07;28.80;90.20
5924;DHT22;2987;50.884;14.818;2022-07-29T13:18:39;29.00;90.90
5924;DHT22;2987;50.884;14.818;2022-07-29T13:21:13;29.00;91.00
5924;DHT22;2987;50.884;14.818;2022-07-29T13:23:43;29.10;90.50
5924;DHT22;2987;50.884;14.818;2022-07-29T13:26:13;29.50;88.70
5924;DHT22;2987;50.884;14.818;2022-07-29T13:28:48;29.90;90.40
5924;DHT22;2987;50.884;14.818;2022-07-29T13:31:19;30.20;86.40
5924;DHT22;2987;50.884;14.818;2022-07-29T13:33:49;30.00;86.90
5924;DHT22;2987;50.884;14.818;2022-07-29T13:36:20;30.10;87.50
5924;DHT22;2987;50.884;14.818;2022-07-29T13:38:50;30.20;85.80
5924;DHT22;2987;50.884;14.818;2022-07-29T13:41:20;30.20;87.00
5924;DHT22;2987;50.884;14.818;2022-07-29T13:43:51;30.30;83.90
5924;DHT22;2987;50.884;14.818;2022-07-29T13:46:21;30.10;81.10
5924;DHT22;2987;50.884;14.818;2022-07-29T13:48:52;30.30;81.90
5924;DHT22;2987;50.884;14.818;2022-07-29T13:51:30;30.50;82.40
5924;DHT22;2987;50.884;14.818;2022-07-29T13:54:04;30.50;83.30
5924;DHT22;2987;50.884;14.818;2022-07-29T13:56:38;30.20;82.40
5924;DHT22;2987;50.884;14.818;2022-07-29T13:59:10;30.20;83.00
5924;DHT22;2987;50.884;14.818;2022-07-29T14:01:39;30.40;83.10
5924;DHT22;2987;50.884;14.818;2022-07-29T14:04:15;30.70;82.80
5924;DHT22;2987;50.884;14.818;2022-07-29T14:06:47;30.90;84.20
5924;DHT22;2987;50.884;14.818;2022-07-29T14:09:17;30.90;78.00
5924;DHT22;2987;50.884;14.818;2022-07-29T14:11:48;30.80;80.70
5924;DHT22;2987;50.884;14.818;2022-07-29T14:14:22;30.80;78.80
5924;DHT22;2987;50.884;14.818;2022-07-29T14:16:51;30.60;79.40
5924;DHT22;2987;50.884;14.818;2022-07-29T14:19:20;30.50;79.20
5924;DHT22;2987;50.884;14.818;2022-07-29T14:21:51;30.30;76.90
5924;DHT22;2987;50.884;14.818;2022-07-29T14:24:22;30.00;77.70
5924;DHT22;2987;50.884;14.818;2022-07-29T14:26:51;30.00;80.40
5924;DHT22;2987;50.884;14.818;2022-07-29T14:29:20;30.10;80.20
5924;DHT22;2987;50.884;14.818;2022-07-29T14:31:49;30.10;80.00
5924;DHT22;2987;50.884;14.818;2022-07-29T14:34:19;29.70;83.50
5924;DHT22;2987;50.884;14.818;2022-07-29T14:36:48;29.40;85.20
5924;DHT22;2987;50.884;14.818;2022-07-29T14:39:17;29.20;84.90
5924;DHT22;2987;50.884;14.818;2022-07-29T14:41:48;29.20;83.40
5924;DHT22;2987;50.884;14.818;2022-07-29T14:44:18;29.40;84.00
5924;DHT22;2987;50.884;14.818;2022-07-29T14:46:48;29.70;83.50
5924;DHT22;2987;50.884;14.818;2022-07-29T14:49:16;29.80;82.30
5924;DHT22;2987;50.884;14.818;2022-07-29T14:51:46;29.90;85.90
5924;DHT22;2987;50.884;14.818;2022-07-29T14:54:16;29.90;85.70
5924;DHT22;2987;50.884;14.818;2022-07-29T14:56:46;30.00;82.20
5924;DHT22;2987;50.884;14.818;2022-07-29T14:59:23;29.80;84.90
5924;DHT22;2987;50.884;14.818;2022-07-29T15:01:53;29.50;85.70
5924;DHT22;2987;50.884;14.818;2022-07-29T15:04:22;29.50;87.10
5924;DHT22;2987;50.884;14.818;2022-07-29T15:06:52;29.60;86.60
5924;DHT22;2987;50.884;14.818;2022-07-29T15:09:22;29.60;87.70
5924;DHT22;2987;50.884;14.818;2022-07-29T15:11:52;29.60;86.90
5924;DHT22;2987;50.884;14.818;2022-07-29T15:14:21;29.70;83.60
5924;DHT22;2987;50.884;14.818;2022-07-29T15:16:51;29.80;83.80
5924;DHT22;2987;50.884;14.818;2022-07-29T15:19:21;29.80;86.10
5924;DHT22;2987;50.884;14.818;2022-07-29T15:21:51;29.30;86.20
5924;DHT22;2987;50.884;14.818;2022-07-29T15:24:21;29.30;84.30
5924;DHT22;2987;50.884;14.818;2022-07-29T15:26:52;28.90;85.90
5924;DHT22;2987;50.884;14.818;2022-07-29T15:29:22;28.80;85.30
5924;DHT22;2987;50.884;14.818;2022-07-29T15:31:53;28.50;87.20
5924;DHT22;2987;50.884;14.818;2022-07-29T15:34:22;28.30;88.90
5924;DHT22;2987;50.884;14.818;2022-07-29T15:36:53;28.10;89.10
5924;DHT22;2987;50.884;14.818;2022-07-29T15:39:22;28.00;90.00
5924;DHT22;2987;50.884;14.818;2022-07-29T15:41:52;28.00;90.40
5924;DHT22;2987;50.884;14.818;2022-07-29T15:44:22;27.80;90.80
5924;DHT22;2987;50.884;14.818;2022-07-29T15:46:51;27.80;90.20
5924;DHT22;2987;50.884;14.818;2022-07-29T15:49:38;27.90;90.40
5924;DHT22;2987;50.884;14.818;2022-07-29T15:52:09;27.90;91.20
5924;DHT22;2987;50.884;14.818;2022-07-29T15:54:40;28.10;90.80
5924;DHT22;2987;50.884;14.818;2022-07-29T15:57:09;28.30;91.20
5924;DHT22;2987;50.884;14.818;2022-07-29T15:59:39;28.40;91.20
5924;DHT22;2987;50.884;14.818;2022-07-29T16:02:09;28.50;90.50
5924;DHT22;2987;50.884;14.818;2022-07-29T16:04:38;28.60;90.10
5924;DHT22;2987;50.884;14.818;2022-07-29T16:07:07;28.50;90.10
5924;DHT22;2987;50.884;14.818;2022-07-29T16:09:37;28.50;90.50
5924;DHT22;2987;50.884;14.818;2022-07-29T16:12:14;28.40;90.20
5924;DHT22;2987;50.884;14.818;2022-07-29T16:14:44;28.30;89.10
5924;DHT22;2987;50.884;14.818;2022-07-29T16:17:19;28.20;91.10
5924;DHT22;2987;50.884;14.818;2022-07-29T16:19:50;28.20;91.50
5924;DHT22;2987;50.884;14.818;2022-07-29T16:22:19;28.00;90.90
5924;DHT22;2987;50.884;14.818;2022-07-29T16:24:50;28.00;91.60
5924;DHT22;2987;50.884;14.818;2022-07-29T16:27:18;27.90;91.50
5924;DHT22;2987;50.884;14.818;2022-07-29T16:29:53;27.70;91.30
5924;DHT22;2987;50.884;14.818;2022-07-29T16:32:23;27.40;91.60
5924;DHT22;2987;50.884;14.818;2022-07-29T16:34:53;27.30;91.80
5924;DHT22;2987;50.884;14.818;2022-07-29T16:37:24;27.20;92.40
5924;DHT22;2987;50.884;14.818;2022-07-29T16:39:54;27.10;92.50
5924;DHT22;2987;50.884;14.818;2022-07-29T16:42:23;27.10;92.70
5924;DHT22;2987;50.884;14.818;2022-07-29T16:44:52;26.90;92.20
5924;DHT22;2987;50.884;14.818;2022-07-29T16:47:23;26.70;92.20
5924;DHT22;2987;50.884;14.818;2022-07-29T16:49:53;26.60;92.40
5924;DHT22;2987;50.884;14.818;2022-07-29T16:52:24;26.50;92.30
5924;DHT22;2987;50.884;14.818;2022-07-29T16:54:53;26.40;92.70
5924;DHT22;2987;50.884;14.818;2022-07-29T16:57:23;26.30;93.40
5924;DHT22;2987;50.884;14.818;2022-07-29T16:59:53;26.20;93.10
5924;DHT22;2987;50.884;14.818;2022-07-29T17:02:22;26.20;93.40
5924;DHT22;2987;50.884;14.818;2022-07-29T17:04:51;26.10;93.80
5924;DHT22;2987;50.884;14.818;2022-07-29T17:07:22;26.00;94.20
5924;DHT22;2987;50.884;14.818;2022-07-29T17:09:52;25.90;94.10
5924;DHT22;2987;50.884;14.818;2022-07-29T17:12:21;25.80;94.60
5924;DHT22;2987;50.884;14.818;2022-07-29T17:14:50;25.70;94.60
5924;DHT22;2987;50.884;14.818;2022-07-29T17:17:20;25.60;94.70
5924;DHT22;2987;50.884;14.818;2022-07-29T17:19:50;25.50;94.30
5924;DHT22;2987;50.884;14.818;2022-07-29T17:22:20;25.30;94.20
5924;DHT22;2987;50.884;14.818;2022-07-29T17:24:51;25.30;94.50